createdAt,value
2022-11-02T00:00:53.613Z,8.91
2022-11-02T00:03:24.297Z,8.90
2022-11-02T00:05:54.756Z,8.89
2022-11-02T00:08:25.322Z,8.86
2022-11-02T00:10:55.778Z,8.85
2022-11-02T00:13:28.937Z,8.84
2022-11-02T00:15:59.700Z,8.83
2022-11-02T00:18:30.916Z,8.82
2022-11-02T00:21:01.786Z,8.80
2022-11-02T00:23:33.420Z,8.77
2022-11-02T00:26:05.297Z,8.76
2022-11-02T00:28:38.781Z,8.73
2022-11-02T00:31:09.246Z,8.69
2022-11-02T00:33:39.808Z,8.67
2022-11-02T00:36:12.051Z,8.64
2022-11-02T00:38:42.582Z,8.59
2022-11-02T00:41:13.062Z,8.54
2022-11-02T00:43:46.424Z,8.51
2022-11-02T00:46:17.737Z,8.50
2022-11-02T00:48:48.342Z,8.50
2022-11-02T00:51:18.930Z,8.49
2022-11-02T00:53:49.536Z,8.49
2022-11-02T00:56:20.119Z,8.48
2022-11-02T00:58:54.121Z,8.44
2022-11-02T01:01:24.864Z,8.43
2022-11-02T01:03:55.565Z,8.41
2022-11-02T01:06:26.943Z,8.39
2022-11-02T01:08:57.567Z,8.38
2022-11-02T01:11:28.433Z,8.36
2022-11-02T01:14:01.634Z,8.33
2022-11-02T01:16:32.381Z,8.32
2022-11-02T01:19:03.119Z,8.28
2022-11-02T01:21:33.593Z,8.23
2022-11-02T01:24:05.943Z,8.20
2022-11-02T01:26:36.452Z,8.18
2022-11-02T01:29:09.686Z,8.12
2022-11-02T01:31:40.147Z,8.10
2022-11-02T01:34:10.762Z,8.06
2022-11-02T01:36:41.275Z,8.01
2022-11-02T01:39:11.864Z,7.96
2022-11-02T01:41:42.322Z,7.91
2022-11-02T01:44:34.469Z,7.90
2022-11-02T01:47:09.270Z,7.87
2022-11-02T01:49:43.018Z,7.83
2022-11-02T01:52:15.854Z,7.83
2022-11-02T01:54:51.947Z,7.80
2022-11-02T01:57:25.234Z,7.79
2022-11-02T02:00:03.956Z,7.76
2022-11-02T02:02:50.567Z,7.75
2022-11-02T02:05:25.597Z,7.73
2022-11-02T02:07:56.953Z,7.71
2022-11-02T02:10:27.830Z,7.69
2022-11-02T02:12:59.462Z,7.66
2022-11-02T02:15:41.589Z,7.62
2022-11-02T02:18:16.818Z,7.58
2022-11-02T02:21:07.858Z,7.55
2022-11-02T02:23:59.446Z,7.50
2022-11-02T02:26:59.292Z,7.51
2022-11-02T02:29:36.733Z,7.52
2022-11-02T02:32:16.443Z,7.53
2022-11-02T02:34:55.626Z,7.55
2022-11-02T02:37:31.041Z,7.55
2022-11-02T02:40:08.976Z,7.56
2022-11-02T02:42:47.263Z,7.56
2022-11-02T02:45:27.352Z,7.57
2022-11-02T02:48:05.175Z,7.58
2022-11-02T02:50:42.304Z,7.56
2022-11-02T02:53:14.898Z,7.54
2022-11-02T02:55:49.131Z,7.51
2022-11-02T02:58:24.701Z,7.49
2022-11-02T03:00:59.861Z,7.46
2022-11-02T03:03:33.779Z,7.44
2022-11-02T03:06:17.733Z,7.43
2022-11-02T03:09:01.719Z,7.38
2022-11-02T03:11:34.831Z,7.33
2022-11-02T03:14:17.753Z,7.30
2022-11-02T03:17:06.126Z,7.27
2022-11-02T03:19:44.772Z,7.23
2022-11-02T03:22:24.930Z,7.21
2022-11-02T03:25:03.296Z,7.19
2022-11-02T03:27:42.533Z,7.14
2022-11-02T03:30:17.529Z,7.11
2022-11-02T03:33:00.181Z,7.08
2022-11-02T03:35:37.013Z,7.06
2022-11-02T03:38:14.763Z,7.05
2022-11-02T03:40:48.465Z,7.03
2022-11-02T03:43:21.665Z,7.03
2022-11-02T03:45:58.772Z,7.00
2022-11-02T03:48:38.129Z,7.04
2022-11-02T03:51:14.717Z,7.05
2022-11-02T03:53:47.661Z,7.04
2022-11-02T03:56:23.518Z,7.04
2022-11-02T03:58:54.393Z,7.05
2022-11-02T04:01:25.623Z,7.04
2022-11-02T04:03:59.728Z,7.02
2022-11-02T04:06:31.287Z,7.01
2022-11-02T04:09:02.582Z,7.00
2022-11-02T04:11:47.136Z,6.98
2022-11-02T04:14:30.967Z,6.97
2022-11-02T04:17:14.911Z,6.98
2022-11-02T04:19:53.069Z,6.97
2022-11-02T04:22:37.803Z,6.99
2022-11-02T04:25:23.890Z,7.00
2022-11-02T04:28:17.598Z,7.00
2022-11-02T04:31:02.682Z,6.97
2022-11-02T04:33:36.032Z,6.97
2022-11-02T04:36:15.251Z,6.94
2022-11-02T04:38:45.042Z,6.91
2022-11-02T04:41:37.403Z,6.90
2022-11-02T04:44:12.201Z,6.88
2022-11-02T04:46:44.653Z,6.88
2022-11-02T04:49:17.477Z,6.88
2022-11-02T04:51:51.262Z,6.92
2022-11-02T04:54:23.272Z,6.91
2022-11-02T04:56:59.469Z,6.91
2022-11-02T04:59:32.156Z,6.92
2022-11-02T05:02:02.925Z,6.93
2022-11-02T05:04:33.771Z,6.91
2022-11-02T05:07:08.040Z,6.90
2022-11-02T05:09:42.483Z,6.87
2022-11-02T05:12:14.474Z,6.87
2022-11-02T05:14:45.033Z,6.82
2022-11-02T05:17:16.546Z,6.82
2022-11-02T05:19:47.946Z,6.90
2022-11-02T05:22:21.608Z,6.90
2022-11-02T05:24:52.249Z,6.89
2022-11-02T05:27:22.797Z,6.89
2022-11-02T05:29:53.600Z,6.90
2022-11-02T05:32:24.159Z,6.91
2022-11-02T05:34:54.726Z,6.96
2022-11-02T05:37:28.686Z,7.01
2022-11-02T05:40:00.240Z,7.09
2022-11-02T05:42:30.828Z,7.16
2022-11-02T05:45:02.126Z,7.22
2022-11-02T05:47:33.210Z,7.31
2022-11-02T05:50:03.734Z,7.37
2022-11-02T05:52:38.399Z,7.50
2022-11-02T05:55:10.055Z,7.63
2022-11-02T05:57:40.520Z,7.76
2022-11-02T06:00:15.278Z,7.92
2022-11-02T06:02:45.794Z,8.14
2022-11-02T06:05:16.970Z,8.29
2022-11-02T06:07:50.071Z,8.51
2022-11-02T06:10:21.333Z,8.67
2022-11-02T06:12:59.463Z,8.88
2022-11-02T06:15:30.819Z,9.05
2022-11-02T06:18:01.421Z,9.27
2022-11-02T06:20:32.027Z,9.51
2022-11-02T06:23:05.364Z,9.71
2022-11-02T06:25:36.226Z,9.90
2022-11-02T06:28:06.797Z,10.07
2022-11-02T06:30:37.319Z,10.25
2022-11-02T06:33:08.266Z,10.43
2022-11-02T06:35:39.026Z,10.66
2022-11-02T06:38:12.127Z,10.90
2022-11-02T06:40:42.946Z,11.16
2022-11-02T06:43:17.690Z,11.44
2022-11-02T06:45:48.695Z,11.71
2022-11-02T06:48:19.664Z,12.04
2022-11-02T06:50:50.324Z,12.37
2022-11-02T06:53:23.351Z,12.72
2022-11-02T06:55:58.094Z,13.10
2022-11-02T06:58:29.314Z,13.46
2022-11-02T07:01:04.896Z,13.83
2022-11-02T07:03:35.673Z,14.21
2022-11-02T07:06:12.733Z,14.57
2022-11-02T07:08:46.988Z,15.00
2022-11-02T07:11:18.310Z,15.39
2022-11-02T07:13:48.881Z,15.72
2022-11-02T07:16:19.406Z,15.97
2022-11-02T07:18:49.878Z,16.16
2022-11-02T07:24:13.693Z,16.41
2022-11-02T07:26:44.750Z,16.48
2022-11-02T07:29:15.509Z,16.54
2022-11-02T07:31:46.154Z,16.59
2022-11-02T07:34:17.328Z,16.64
2022-11-02T07:36:48.023Z,16.69
2022-11-02T07:39:21.114Z,16.72
2022-11-02T07:41:52.208Z,16.77
2022-11-02T07:44:22.781Z,16.83
2022-11-02T07:46:59.041Z,16.90
2022-11-02T07:49:29.515Z,16.95
2022-11-02T07:52:00.155Z,17.01
2022-11-02T07:54:33.302Z,17.06
2022-11-02T07:57:03.831Z,17.11
2022-11-02T07:59:34.336Z,17.18
2022-11-02T08:02:04.867Z,17.24
2022-11-02T08:04:39.503Z,17.26
2022-11-02T08:07:12.997Z,17.35
2022-11-02T08:09:46.087Z,17.36
2022-11-02T08:12:16.677Z,17.48
2022-11-02T08:14:47.144Z,17.56
2022-11-02T08:17:17.811Z,17.64
2022-11-02T08:19:48.311Z,17.73
2022-11-02T08:22:18.948Z,17.80
2022-11-02T08:24:52.022Z,17.86
2022-11-02T08:27:22.513Z,17.94
2022-11-02T08:29:53.081Z,18.00
2022-11-02T08:32:23.594Z,18.05
2022-11-02T08:34:54.046Z,18.10
2022-11-02T08:37:24.517Z,18.17
2022-11-02T08:39:57.643Z,18.25
2022-11-02T08:42:28.593Z,18.33
2022-11-02T08:44:59.087Z,18.43
2022-11-02T08:47:29.585Z,18.54
2022-11-02T08:50:00.066Z,18.68
2022-11-02T08:52:30.694Z,18.78
2022-11-02T08:55:03.818Z,18.91
2022-11-02T08:57:34.638Z,19.01
2022-11-02T09:00:06.653Z,19.10
2022-11-02T09:02:37.203Z,19.21
2022-11-02T09:05:08.561Z,19.29
2022-11-02T09:07:39.291Z,19.40
2022-11-02T09:10:13.117Z,19.50
2022-11-02T09:12:43.698Z,19.59
2022-11-02T09:15:14.290Z,19.67
2022-11-02T09:17:44.809Z,19.76
2022-11-02T09:20:15.318Z,19.85
2022-11-02T09:22:45.874Z,19.91
2022-11-02T09:25:19.610Z,20.01
2022-11-02T09:27:55.143Z,20.09
2022-11-02T09:30:27.247Z,20.19
2022-11-02T09:32:58.380Z,20.29
2022-11-02T09:35:30.591Z,20.39
2022-11-02T09:38:01.322Z,20.49
2022-11-02T09:40:39.806Z,20.57
2022-11-02T09:43:19.164Z,20.67
2022-11-02T09:45:58.437Z,20.76
2022-11-02T09:48:33.445Z,20.83
2022-11-02T09:51:11.328Z,20.90
2022-11-02T09:53:54.971Z,20.98
2022-11-02T09:56:29.511Z,21.05
2022-11-02T09:59:03.717Z,21.11
2022-11-02T10:01:50.571Z,21.16
2022-11-02T10:04:47.205Z,21.24
2022-11-02T10:07:29.868Z,21.28
2022-11-02T10:10:06.530Z,21.36
2022-11-02T10:12:53.248Z,21.43
2022-11-02T10:15:26.969Z,21.50
2022-11-02T10:18:01.634Z,21.58
2022-11-02T10:20:37.842Z,21.63
2022-11-02T10:23:11.807Z,21.76
2022-11-02T10:25:42.302Z,21.86
2022-11-02T10:28:20.538Z,21.96
2022-11-02T10:30:51.048Z,22.06
2022-11-02T10:33:25.159Z,22.16
2022-11-02T10:36:17.857Z,22.26
2022-11-02T10:38:59.574Z,22.39
2022-11-02T10:41:43.105Z,22.51
2022-11-02T10:44:34.946Z,22.64
2022-11-02T10:47:16.617Z,22.80
2022-11-02T10:50:16.300Z,22.94
2022-11-02T10:52:49.031Z,23.08
2022-11-02T10:55:29.321Z,23.21
2022-11-02T10:58:04.083Z,23.36
2022-11-02T11:00:39.519Z,23.49
2022-11-02T11:03:15.003Z,23.60
2022-11-02T11:06:00.689Z,23.74
2022-11-02T11:08:43.916Z,23.85
2022-11-02T11:11:18.112Z,23.95
2022-11-02T11:16:54.270Z,24.21
2022-11-02T11:19:42.609Z,24.33
2022-11-02T11:22:29.179Z,24.48
2022-11-02T11:25:27.566Z,24.62
2022-11-02T11:28:00.439Z,24.76
2022-11-02T11:30:58.309Z,24.87
2022-11-02T11:33:26.285Z,24.97
2022-11-02T11:35:56.776Z,25.02
2022-11-02T11:38:29.149Z,25.08
2022-11-02T11:41:02.595Z,25.13
2022-11-02T11:43:38.624Z,25.16
2022-11-02T11:46:11.184Z,25.19
2022-11-02T11:48:48.110Z,25.23
2022-11-02T11:51:42.525Z,25.28
2022-11-02T11:54:24.765Z,25.34
2022-11-02T11:56:57.172Z,25.36
2022-11-02T11:59:33.693Z,25.44
2022-11-02T12:02:05.654Z,25.47
2022-11-02T12:04:40.933Z,25.50
2022-11-02T12:07:37.001Z,25.55
2022-11-02T12:10:14.892Z,25.61
2022-11-02T12:13:03.813Z,25.69
2022-11-02T12:15:50.523Z,25.75
2022-11-02T12:18:36.641Z,25.80
2022-11-02T12:21:28.450Z,25.82
2022-11-02T12:24:15.263Z,25.76
2022-11-02T12:27:01.283Z,25.68
2022-11-02T12:29:48.607Z,25.57
2022-11-02T12:32:30.844Z,25.40
2022-11-02T12:35:28.768Z,25.21
2022-11-02T12:38:44.211Z,25.02
2022-11-02T12:41:28.254Z,24.84
2022-11-02T12:44:07.852Z,24.67
2022-11-02T12:46:49.096Z,24.55
2022-11-02T12:49:39.268Z,24.43
2022-11-02T12:52:18.334Z,24.30
2022-11-02T12:54:52.448Z,24.21
2022-11-02T12:57:28.810Z,24.13
2022-11-02T13:00:05.037Z,24.04
2022-11-02T13:02:42.567Z,23.96
2022-11-02T13:05:17.875Z,23.88
2022-11-02T13:07:55.167Z,23.82
2022-11-02T13:10:31.254Z,23.76
2022-11-02T13:13:07.565Z,23.71
2022-11-02T13:15:42.444Z,23.64
2022-11-02T13:18:18.588Z,23.59
2022-11-02T13:20:55.299Z,23.56
2022-11-02T13:23:37.657Z,23.50
2022-11-02T13:26:15.123Z,23.46
2022-11-02T13:28:51.822Z,23.42
2022-11-02T13:31:31.246Z,23.37
2022-11-02T13:34:06.408Z,23.31
2022-11-02T13:36:40.202Z,23.28
2022-11-02T13:39:16.196Z,23.22
2022-11-02T13:42:16.931Z,23.18
2022-11-02T13:45:30.073Z,23.10
2022-11-02T13:48:23.386Z,23.06
2022-11-02T13:50:56.604Z,23.02
2022-11-02T13:53:32.804Z,22.95
2022-11-02T13:56:08.673Z,22.91
2022-11-02T13:58:41.463Z,22.86
2022-11-02T14:01:18.915Z,22.82
2022-11-02T14:03:58.854Z,22.77
2022-11-02T14:06:34.828Z,22.70
2022-11-02T14:09:07.648Z,22.66
2022-11-02T14:11:48.251Z,22.59
2022-11-02T14:14:22.983Z,22.51
2022-11-02T14:17:20.949Z,22.46
2022-11-02T14:20:04.964Z,22.39
2022-11-02T14:22:35.522Z,22.33
2022-11-02T14:25:18.929Z,22.24
2022-11-02T14:27:49.494Z,22.18
2022-11-02T14:30:46.801Z,22.11
2022-11-02T14:33:50.815Z,22.00
2022-11-02T14:36:37.430Z,21.90
2022-11-02T14:39:18.752Z,21.82
2022-11-02T14:42:16.837Z,21.72
2022-11-02T14:45:06.001Z,21.63
2022-11-02T14:47:40.266Z,21.55
2022-11-02T14:50:20.075Z,21.48
2022-11-02T14:53:05.280Z,21.39
2022-11-02T14:55:37.850Z,21.28
2022-11-02T14:58:12.025Z,21.19
2022-11-02T15:00:58.955Z,21.09
2022-11-02T15:03:35.860Z,21.02
2022-11-02T15:06:18.425Z,20.93
2022-11-02T15:08:55.138Z,20.83
2022-11-02T15:11:51.585Z,20.73
2022-11-02T15:15:01.312Z,20.61
2022-11-02T15:17:56.918Z,20.48
2022-11-02T15:20:32.493Z,20.37
2022-11-02T15:23:31.135Z,20.24
2022-11-02T15:26:03.470Z,20.16
2022-11-02T15:28:37.107Z,20.06
2022-11-02T15:31:20.571Z,19.98
2022-11-02T15:33:56.579Z,19.89
2022-11-02T15:36:33.531Z,19.81
2022-11-02T15:39:10.112Z,19.73
2022-11-02T15:41:46.568Z,19.64
2022-11-02T15:44:35.799Z,19.55
2022-11-02T15:47:17.722Z,19.44
2022-11-02T15:50:13.264Z,19.34
2022-11-02T15:53:21.819Z,19.23
2022-11-02T15:56:04.084Z,19.14
2022-11-02T15:58:48.134Z,19.04
2022-11-02T16:01:22.745Z,18.95
2022-11-02T16:03:58.640Z,18.89
2022-11-02T16:06:31.908Z,18.80
2022-11-02T16:09:03.941Z,18.72
2022-11-02T16:11:37.084Z,18.62
2022-11-02T16:14:19.816Z,18.53
2022-11-02T16:16:51.511Z,18.43
2022-11-02T16:19:23.366Z,18.35
2022-11-02T16:21:57.232Z,18.27
2022-11-02T16:24:32.274Z,18.20
2022-11-02T16:27:07.214Z,18.12
2022-11-02T16:29:38.454Z,18.08
2022-11-02T16:32:12.959Z,18.02
2022-11-02T16:34:44.274Z,17.99
2022-11-02T16:37:18.942Z,17.93
2022-11-02T16:39:50.859Z,17.87
2022-11-02T16:42:27.068Z,17.82
2022-11-02T16:45:05.256Z,17.81
2022-11-02T16:47:42.636Z,17.70
2022-11-02T16:50:23.386Z,17.72
2022-11-02T16:52:58.839Z,17.66
2022-11-02T16:55:41.123Z,17.60
2022-11-02T16:58:20.146Z,17.52
2022-11-02T17:00:59.710Z,17.44
2022-11-02T17:03:33.970Z,17.33
2022-11-02T17:06:07.909Z,17.24
2022-11-02T17:08:39.996Z,17.17
2022-11-02T17:11:17.078Z,17.09
2022-11-02T17:13:54.696Z,17.01
2022-11-02T17:16:25.515Z,16.93
2022-11-02T17:18:56.343Z,16.85
2022-11-02T17:21:29.290Z,16.78
2022-11-02T17:24:01.635Z,16.71
2022-11-02T17:26:42.192Z,16.63
2022-11-02T17:29:36.099Z,16.55
2022-11-02T17:32:07.528Z,16.50
2022-11-02T17:34:38.010Z,16.44
2022-11-02T17:37:09.934Z,16.40
2022-11-02T17:39:40.410Z,16.38
2022-11-02T17:42:24.844Z,16.33
2022-11-02T17:44:58.072Z,16.29
2022-11-02T17:47:28.733Z,16.26
2022-11-02T17:49:59.179Z,16.21
2022-11-02T17:52:29.737Z,16.15
2022-11-02T17:55:00.296Z,16.08
2022-11-02T17:57:31.604Z,16.02
2022-11-02T18:00:04.750Z,15.94
2022-11-02T18:02:43.263Z,15.87
2022-11-02T18:05:25.079Z,15.80
2022-11-02T18:07:55.875Z,15.73
2022-11-02T18:10:28.742Z,15.66
2022-11-02T18:12:59.419Z,15.60
2022-11-02T18:15:35.341Z,15.50
2022-11-02T18:18:06.158Z,15.43
2022-11-02T18:20:41.290Z,15.35
2022-11-02T18:23:16.993Z,15.28
2022-11-02T18:25:47.678Z,15.22
2022-11-02T18:28:18.377Z,15.16
2022-11-02T18:30:51.497Z,15.08
2022-11-02T18:33:22.127Z,15.01
2022-11-02T18:35:52.694Z,14.95
2022-11-02T18:38:23.225Z,14.89
2022-11-02T18:40:53.664Z,14.81
2022-11-02T18:43:24.001Z,14.75
2022-11-02T18:45:57.145Z,14.71
2022-11-02T18:48:27.642Z,14.67
2022-11-02T18:50:58.124Z,14.59
2022-11-02T18:53:28.622Z,14.52
2022-11-02T18:56:05.627Z,14.45
2022-11-02T18:58:36.338Z,14.39
2022-11-02T19:01:15.426Z,14.35
2022-11-02T19:03:46.234Z,14.29
2022-11-02T19:06:29.103Z,14.25
2022-11-02T19:09:11.856Z,14.20
2022-11-02T19:11:42.613Z,14.16
2022-11-02T19:14:13.112Z,14.10
2022-11-02T19:16:47.049Z,14.04
2022-11-02T19:19:17.966Z,14.01
2022-11-02T19:21:49.137Z,13.97
2022-11-02T19:24:21.139Z,13.93
2022-11-02T19:26:52.129Z,13.90
2022-11-02T19:29:23.179Z,13.86
2022-11-02T19:31:56.508Z,13.83
2022-11-02T19:34:27.096Z,13.79
2022-11-02T19:36:57.695Z,13.75
2022-11-02T19:39:28.706Z,13.69
2022-11-02T19:41:59.449Z,13.63
2022-11-02T19:44:29.896Z,13.61
2022-11-02T19:47:03.136Z,13.57
2022-11-02T19:49:33.637Z,13.53
2022-11-02T19:52:04.248Z,13.49
2022-11-02T19:54:34.729Z,13.44
2022-11-02T19:57:05.382Z,13.40
2022-11-02T19:59:36.239Z,13.32
2022-11-02T20:02:09.735Z,13.23
2022-11-02T20:04:42.542Z,13.12
2022-11-02T20:07:13.240Z,13.05
2022-11-02T20:09:44.767Z,12.95
2022-11-02T20:12:15.355Z,12.71
2022-11-02T20:14:45.895Z,11.85
2022-11-02T20:17:31.182Z,10.80
2022-11-02T20:20:01.895Z,9.79
2022-11-02T20:22:34.122Z,9.20
2022-11-02T20:25:04.868Z,8.72
2022-11-02T20:27:37.287Z,8.30
2022-11-02T20:30:08.885Z,7.98
2022-11-02T20:32:42.382Z,7.76
2022-11-02T20:35:13.941Z,7.62
2022-11-02T20:37:44.604Z,7.51
2022-11-02T20:40:16.212Z,7.45
2022-11-02T20:42:46.861Z,7.46
2022-11-02T20:45:18.082Z,7.43
2022-11-02T20:47:52.149Z,7.37
2022-11-02T20:50:26.076Z,7.31
2022-11-02T20:52:58.828Z,7.27
2022-11-02T20:55:29.375Z,7.24
2022-11-02T20:57:59.821Z,7.29
2022-11-02T21:00:30.309Z,7.40
2022-11-02T21:03:03.803Z,7.59
2022-11-02T21:05:34.522Z,7.84
2022-11-02T21:08:05.122Z,8.06
2022-11-02T21:10:35.587Z,8.15
2022-11-02T21:13:18.712Z,8.16
2022-11-02T21:15:49.217Z,7.91
2022-11-02T21:18:22.535Z,7.84
2022-11-02T21:20:52.991Z,7.96
2022-11-02T21:23:23.759Z,8.18
2022-11-02T21:26:01.475Z,8.48
2022-11-02T21:28:32.670Z,8.77
2022-11-02T21:31:05.218Z,9.06
2022-11-02T21:33:38.587Z,9.36
2022-11-02T21:36:10.259Z,9.58
2022-11-02T21:38:41.435Z,9.81
2022-11-02T21:41:12.768Z,9.99
2022-11-02T21:43:43.380Z,10.11
2022-11-02T21:46:13.905Z,10.32
2022-11-02T21:48:47.092Z,10.47
2022-11-02T21:51:19.372Z,10.59
2022-11-02T21:53:52.525Z,10.72
2022-11-02T21:56:25.832Z,10.82
2022-11-02T21:58:57.660Z,10.90
2022-11-02T22:01:42.222Z,10.98
2022-11-02T22:04:17.052Z,11.04
2022-11-02T22:06:47.520Z,11.09
2022-11-02T22:09:18.130Z,11.15
2022-11-02T22:12:08.657Z,11.18
2022-11-02T22:14:39.378Z,11.22
2022-11-02T22:17:16.877Z,11.27
2022-11-02T22:19:55.639Z,11.31
2022-11-02T22:22:27.841Z,11.35
2022-11-02T22:24:58.567Z,11.37
2022-11-02T22:27:29.072Z,11.40
2022-11-02T22:29:59.697Z,11.42
2022-11-02T22:32:30.194Z,11.44
2022-11-02T22:35:03.396Z,11.47
2022-11-02T22:37:46.418Z,11.51
2022-11-02T22:40:17.180Z,11.54
2022-11-02T22:42:48.277Z,11.50
2022-11-02T22:45:19.034Z,11.56
2022-11-02T22:47:49.486Z,11.57
2022-11-02T22:50:26.727Z,11.57
2022-11-02T22:52:58.479Z,11.58
2022-11-02T22:55:31.726Z,11.55
2022-11-02T22:58:02.468Z,11.56
2022-11-02T23:00:33.045Z,11.54
2022-11-02T23:03:03.901Z,11.54
2022-11-02T23:05:37.302Z,11.55
2022-11-02T23:08:08.318Z,11.56
2022-11-02T23:10:53.640Z,11.56
2022-11-02T23:13:25.159Z,11.58
2022-11-02T23:16:15.709Z,11.60
2022-11-02T23:18:58.470Z,11.60
2022-11-02T23:21:31.585Z,11.63
2022-11-02T23:24:14.333Z,11.64
2022-11-02T23:26:46.799Z,11.68
2022-11-02T23:29:30.167Z,11.70
2022-11-02T23:32:13.169Z,11.71
2022-11-02T23:35:03.873Z,11.74
2022-11-02T23:37:34.508Z,11.75
2022-11-02T23:40:05.036Z,11.77
2022-11-02T23:42:35.669Z,11.80
2022-11-02T23:45:06.398Z,11.79
2022-11-02T23:47:49.235Z,11.81
2022-11-02T23:50:42.076Z,11.77
2022-11-02T23:53:30.455Z,11.80
2022-11-02T23:56:13.832Z,11.57
2022-11-02T23:58:44.387Z,10.81
